sensor_id;sensor_type;location;lat;lon;timestamp;temperature;humidity
19970;DHT22;10146;47.754;9.566;2023-06-01T00:00:35;16.80;86.30
19970;DHT22;10146;47.754;9.566;2023-06-01T00:03:03;16.70;87.10
19970;DHT22;10146;47.754;9.566;2023-06-01T00:05:29;16.60;88.70
19970;DHT22;10146;47.754;9.566;2023-06-01T00:07:54;16.50;88.70
19970;DHT22;10146;47.754;9.566;2023-06-01T00:10:20;16.50;89.80
19970;DHT22;10146;47.754;9.566;2023-06-01T00:12:45;16.30;90.40
19970;DHT22;10146;47.754;9.566;2023-06-01T00:15:11;16.40;89.20
19970;DHT22;10146;47.754;9.566;2023-06-01T00:17:37;16.40;90.10
19970;DHT22;10146;47.754;9.566;2023-06-01T00:20:03;16.40;91.20
19970;DHT22;10146;47.754;9.566;2023-06-01T00:22:34;16.30;91.10
19970;DHT22;10146;47.754;9.566;2023-06-01T00:25:07;16.40;90.80
19970;DHT22;10146;47.754;9.566;2023-06-01T00:27:32;16.30;92.00
19970;DHT22;10146;47.754;9.566;2023-06-01T00:29:58;16.40;91.40
19970;DHT22;10146;47.754;9.566;2023-06-01T00:32:23;16.40;91.70
19970;DHT22;10146;47.754;9.566;2023-06-01T00:34:49;16.30;92.90
19970;DHT22;10146;47.754;9.566;2023-06-01T00:37:15;16.20;92.90
19970;DHT22;10146;47.754;9.566;2023-06-01T00:39:40;16.20;93.50
19970;DHT22;10146;47.754;9.566;2023-06-01T00:42:06;16.10;94.30
19970;DHT22;10146;47.754;9.566;2023-06-01T00:44:32;16.10;94.10
19970;DHT22;10146;47.754;9.566;2023-06-01T00:46:57;16.10;94.90
19970;DHT22;10146;47.754;9.566;2023-06-01T00:49:25;16.00;96.10
19970;DHT22;10146;47.754;9.566;2023-06-01T00:51:51;16.00;96.10
19970;DHT22;10146;47.754;9.566;2023-06-01T00:54:17;16.00;96.40
19970;DHT22;10146;47.754;9.566;2023-06-01T00:56:42;16.00;97.00
19970;DHT22;10146;47.754;9.566;2023-06-01T00:59:08;16.00;96.90
19970;DHT22;10146;47.754;9.566;2023-06-01T01:01:34;16.00;96.70
19970;DHT22;10146;47.754;9.566;2023-06-01T01:04:01;15.90;98.70
19970;DHT22;10146;47.754;9.566;2023-06-01T01:06:51;15.80;98.00
19970;DHT22;10146;47.754;9.566;2023-06-01T01:09:46;15.80;98.40
19970;DHT22;10146;47.754;9.566;2023-06-01T01:12:30;15.80;98.40
19970;DHT22;10146;47.754;9.566;2023-06-01T01:18:06;15.90;99.50
19970;DHT22;10146;47.754;9.566;2023-06-01T01:20:41;15.80;99.90
19970;DHT22;10146;47.754;9.566;2023-06-01T01:23:28;15.70;99.90
19970;DHT22;10146;47.754;9.566;2023-06-01T01:26:08;15.60;99.90
19970;DHT22;10146;47.754;9.566;2023-06-01T01:28:51;15.40;99.90
19970;DHT22;10146;47.754;9.566;2023-06-01T01:31:23;15.30;99.90
19970;DHT22;10146;47.754;9.566;2023-06-01T01:33:50;15.30;99.90
19970;DHT22;10146;47.754;9.566;2023-06-01T01:36:18;15.20;99.90
19970;DHT22;10146;47.754;9.566;2023-06-01T01:38:43;15.20;99.90
19970;DHT22;10146;47.754;9.566;2023-06-01T01:41:09;15.20;99.90
19970;DHT22;10146;47.754;9.566;2023-06-01T01:43:36;15.10;99.90
19970;DHT22;10146;47.754;9.566;2023-06-01T01:46:22;15.00;99.90
19970;DHT22;10146;47.754;9.566;2023-06-01T01:49:15;15.00;99.90
19970;DHT22;10146;47.754;9.566;2023-06-01T01:51:54;14.90;99.90
19970;DHT22;10146;47.754;9.566;2023-06-01T01:54:21;14.90;99.90
19970;DHT22;10146;47.754;9.566;2023-06-01T01:56:50;14.90;99.90
19970;DHT22;10146;47.754;9.566;2023-06-01T01:59:17;14.90;99.90
19970;DHT22;10146;47.754;9.566;2023-06-01T02:01:43;14.70;99.90
19970;DHT22;10146;47.754;9.566;2023-06-01T02:04:10;14.70;99.90
19970;DHT22;10146;47.754;9.566;2023-06-01T02:06:36;14.70;99.90
19970;DHT22;10146;47.754;9.566;2023-06-01T02:09:03;14.50;99.90
19970;DHT22;10146;47.754;9.566;2023-06-01T02:11:32;14.50;99.90
19970;DHT22;10146;47.754;9.566;2023-06-01T02:13:58;14.50;99.90
19970;DHT22;10146;47.754;9.566;2023-06-01T02:16:24;14.60;99.90
19970;DHT22;10146;47.754;9.566;2023-06-01T02:18:49;14.50;99.90
19970;DHT22;10146;47.754;9.566;2023-06-01T02:21:15;14.60;99.90
19970;DHT22;10146;47.754;9.566;2023-06-01T02:23:41;14.60;99.90
19970;DHT22;10146;47.754;9.566;2023-06-01T02:26:08;14.60;99.90
19970;DHT22;10146;47.754;9.566;2023-06-01T02:28:36;14.50;99.90
19970;DHT22;10146;47.754;9.566;2023-06-01T02:31:02;14.40;99.90
19970;DHT22;10146;47.754;9.566;2023-06-01T02:33:28;14.40;99.90
19970;DHT22;10146;47.754;9.566;2023-06-01T02:35:54;14.20;99.90
19970;DHT22;10146;47.754;9.566;2023-06-01T02:38:19;14.10;99.90
19970;DHT22;10146;47.754;9.566;2023-06-01T02:40:45;14.10;99.90
19970;DHT22;10146;47.754;9.566;2023-06-01T02:43:10;14.00;99.90
19970;DHT22;10146;47.754;9.566;2023-06-01T02:45:36;14.10;99.90
19970;DHT22;10146;47.754;9.566;2023-06-01T02:48:02;14.10;99.90
19970;DHT22;10146;47.754;9.566;2023-06-01T02:50:28;14.10;99.90
19970;DHT22;10146;47.754;9.566;2023-06-01T02:52:53;14.10;99.90
19970;DHT22;10146;47.754;9.566;2023-06-01T02:55:19;14.10;99.90
19970;DHT22;10146;47.754;9.566;2023-06-01T02:57:44;14.00;99.90
19970;DHT22;10146;47.754;9.566;2023-06-01T03:00:10;14.10;99.90
19970;DHT22;10146;47.754;9.566;2023-06-01T03:02:47;14.00;99.90
19970;DHT22;10146;47.754;9.566;2023-06-01T03:05:13;14.00;99.90
19970;DHT22;10146;47.754;9.566;2023-06-01T03:07:44;13.90;99.90
19970;DHT22;10146;47.754;9.566;2023-06-01T03:10:10;13.90;99.90
19970;DHT22;10146;47.754;9.566;2023-06-01T03:12:36;13.80;99.90
19970;DHT22;10146;47.754;9.566;2023-06-01T03:15:02;13.80;99.90
19970;DHT22;10146;47.754;9.566;2023-06-01T03:17:28;13.70;99.90
19970;DHT22;10146;47.754;9.566;2023-06-01T03:19:53;13.70;99.90
19970;DHT22;10146;47.754;9.566;2023-06-01T03:22:19;13.70;99.90
19970;DHT22;10146;47.754;9.566;2023-06-01T03:24:45;13.80;99.90
19970;DHT22;10146;47.754;9.566;2023-06-01T03:27:15;13.80;99.90
19970;DHT22;10146;47.754;9.566;2023-06-01T03:29:41;13.70;99.90
19970;DHT22;10146;47.754;9.566;2023-06-01T03:32:07;13.70;99.90
19970;DHT22;10146;47.754;9.566;2023-06-01T03:34:32;13.80;99.90
19970;DHT22;10146;47.754;9.566;2023-06-01T03:37:02;13.70;99.90
19970;DHT22;10146;47.754;9.566;2023-06-01T03:39:29;13.60;99.90
19970;DHT22;10146;47.754;9.566;2023-06-01T03:41:57;13.50;99.90
19970;DHT22;10146;47.754;9.566;2023-06-01T03:44:22;13.50;99.90
19970;DHT22;10146;47.754;9.566;2023-06-01T03:46:48;13.50;99.90
19970;DHT22;10146;47.754;9.566;2023-06-01T03:49:13;13.50;99.90
19970;DHT22;10146;47.754;9.566;2023-06-01T03:51:39;13.50;99.90
19970;DHT22;10146;47.754;9.566;2023-06-01T03:54:05;13.50;99.90
19970;DHT22;10146;47.754;9.566;2023-06-01T03:56:30;13.50;99.90
19970;DHT22;10146;47.754;9.566;2023-06-01T03:58:56;13.40;99.90
19970;DHT22;10146;47.754;9.566;2023-06-01T04:01:21;13.40;99.90
19970;DHT22;10146;47.754;9.566;2023-06-01T04:03:48;13.40;99.90
19970;DHT22;10146;47.754;9.566;2023-06-01T04:06:14;13.40;99.90
19970;DHT22;10146;47.754;9.566;2023-06-01T04:08:43;13.40;99.90
19970;DHT22;10146;47.754;9.566;2023-06-01T04:11:17;13.50;99.90
19970;DHT22;10146;47.754;9.566;2023-06-01T04:13:43;13.40;99.90
19970;DHT22;10146;47.754;9.566;2023-06-01T04:16:10;13.50;99.90
19970;DHT22;10146;47.754;9.566;2023-06-01T04:18:35;13.40;99.90
19970;DHT22;10146;47.754;9.566;2023-06-01T04:21:02;13.50;99.90
19970;DHT22;10146;47.754;9.566;2023-06-01T04:23:30;13.60;99.90
19970;DHT22;10146;47.754;9.566;2023-06-01T04:25:59;13.70;99.90
19970;DHT22;10146;47.754;9.566;2023-06-01T04:28:28;13.80;99.90
19970;DHT22;10146;47.754;9.566;2023-06-01T04:30:55;13.80;99.90
19970;DHT22;10146;47.754;9.566;2023-06-01T04:33:21;13.80;99.90
19970;DHT22;10146;47.754;9.566;2023-06-01T04:35:50;13.80;99.90
19970;DHT22;10146;47.754;9.566;2023-06-01T04:38:18;13.80;99.90
19970;DHT22;10146;47.754;9.566;2023-06-01T04:40:44;13.90;99.90
19970;DHT22;10146;47.754;9.566;2023-06-01T04:43:13;14.00;99.90
19970;DHT22;10146;47.754;9.566;2023-06-01T04:45:45;14.10;99.90
19970;DHT22;10146;47.754;9.566;2023-06-01T04:48:11;14.10;99.90
19970;DHT22;10146;47.754;9.566;2023-06-01T04:50:36;14.20;99.90
19970;DHT22;10146;47.754;9.566;2023-06-01T04:53:03;14.30;99.90
19970;DHT22;10146;47.754;9.566;2023-06-01T04:55:28;14.40;99.90
19970;DHT22;10146;47.754;9.566;2023-06-01T04:57:55;14.60;99.90
19970;DHT22;10146;47.754;9.566;2023-06-01T05:00:20;14.60;99.90
19970;DHT22;10146;47.754;9.566;2023-06-01T05:02:47;14.70;99.90
19970;DHT22;10146;47.754;9.566;2023-06-01T05:05:16;14.80;99.90
19970;DHT22;10146;47.754;9.566;2023-06-01T05:07:42;14.90;99.90
19970;DHT22;10146;47.754;9.566;2023-06-01T05:10:09;14.90;99.90
19970;DHT22;10146;47.754;9.566;2023-06-01T05:12:35;14.90;99.90
19970;DHT22;10146;47.754;9.566;2023-06-01T05:15:03;15.00;99.90
19970;DHT22;10146;47.754;9.566;2023-06-01T05:17:29;15.10;99.90
19970;DHT22;10146;47.754;9.566;2023-06-01T05:19:55;15.20;99.90
19970;DHT22;10146;47.754;9.566;2023-06-01T05:22:22;15.20;99.90
19970;DHT22;10146;47.754;9.566;2023-06-01T05:24:48;15.20;99.90
19970;DHT22;10146;47.754;9.566;2023-06-01T05:27:13;15.20;99.90
19970;DHT22;10146;47.754;9.566;2023-06-01T05:29:39;15.20;99.90
19970;DHT22;10146;47.754;9.566;2023-06-01T05:32:06;15.40;99.90
19970;DHT22;10146;47.754;9.566;2023-06-01T05:34:31;15.40;99.90
19970;DHT22;10146;47.754;9.566;2023-06-01T05:36:57;15.60;99.90
19970;DHT22;10146;47.754;9.566;2023-06-01T05:39:22;15.60;99.90
19970;DHT22;10146;47.754;9.566;2023-06-01T05:41:53;15.70;99.90
19970;DHT22;10146;47.754;9.566;2023-06-01T05:44:18;15.80;99.90
19970;DHT22;10146;47.754;9.566;2023-06-01T05:46:45;15.90;99.90
19970;DHT22;10146;47.754;9.566;2023-06-01T05:49:10;16.00;99.90
19970;DHT22;10146;47.754;9.566;2023-06-01T05:51:36;16.10;99.90
19970;DHT22;10146;47.754;9.566;2023-06-01T05:54:03;16.20;99.90
19970;DHT22;10146;47.754;9.566;2023-06-01T05:56:30;16.30;99.90
19970;DHT22;10146;47.754;9.566;2023-06-01T05:58:56;16.40;99.90
19970;DHT22;10146;47.754;9.566;2023-06-01T06:01:21;16.50;99.90
19970;DHT22;10146;47.754;9.566;2023-06-01T06:03:47;16.70;99.90
19970;DHT22;10146;47.754;9.566;2023-06-01T06:06:13;16.70;99.90
19970;DHT22;10146;47.754;9.566;2023-06-01T06:08:38;16.70;99.90
19970;DHT22;10146;47.754;9.566;2023-06-01T06:11:04;16.80;99.90
19970;DHT22;10146;47.754;9.566;2023-06-01T06:13:30;16.90;99.90
19970;DHT22;10146;47.754;9.566;2023-06-01T06:15:55;16.90;99.90
19970;DHT22;10146;47.754;9.566;2023-06-01T06:18:21;17.00;99.90
19970;DHT22;10146;47.754;9.566;2023-06-01T06:20:47;17.00;99.90
19970;DHT22;10146;47.754;9.566;2023-06-01T06:23:13;17.10;99.90
19970;DHT22;10146;47.754;9.566;2023-06-01T06:25:38;17.10;99.90
19970;DHT22;10146;47.754;9.566;2023-06-01T06:28:05;17.20;99.90
19970;DHT22;10146;47.754;9.566;2023-06-01T06:30:31;17.30;99.90
19970;DHT22;10146;47.754;9.566;2023-06-01T06:32:57;17.40;99.90
19970;DHT22;10146;47.754;9.566;2023-06-01T06:35:22;17.50;99.90
19970;DHT22;10146;47.754;9.566;2023-06-01T06:37:48;17.50;99.90
19970;DHT22;10146;47.754;9.566;2023-06-01T06:40:13;17.60;99.90
19970;DHT22;10146;47.754;9.566;2023-06-01T06:42:40;17.70;99.90
19970;DHT22;10146;47.754;9.566;2023-06-01T06:45:06;17.60;99.90
19970;DHT22;10146;47.754;9.566;2023-06-01T06:47:32;17.70;99.90
19970;DHT22;10146;47.754;9.566;2023-06-01T06:49:57;17.80;99.90
19970;DHT22;10146;47.754;9.566;2023-06-01T06:52:23;17.90;99.90
19970;DHT22;10146;47.754;9.566;2023-06-01T06:54:49;17.90;99.90
19970;DHT22;10146;47.754;9.566;2023-06-01T06:57:14;18.00;99.90
19970;DHT22;10146;47.754;9.566;2023-06-01T06:59:40;18.10;99.90
19970;DHT22;10146;47.754;9.566;2023-06-01T07:02:06;18.10;99.90
19970;DHT22;10146;47.754;9.566;2023-06-01T07:04:31;18.10;99.90
19970;DHT22;10146;47.754;9.566;2023-06-01T07:06:57;18.20;99.90
19970;DHT22;10146;47.754;9.566;2023-06-01T07:09:22;18.20;99.90
19970;DHT22;10146;47.754;9.566;2023-06-01T07:11:48;18.30;99.90
19970;DHT22;10146;47.754;9.566;2023-06-01T07:14:14;18.40;99.90
19970;DHT22;10146;47.754;9.566;2023-06-01T07:16:40;18.50;99.90
19970;DHT22;10146;47.754;9.566;2023-06-01T07:19:07;18.50;99.90
19970;DHT22;10146;47.754;9.566;2023-06-01T07:21:33;18.60;99.90
19970;DHT22;10146;47.754;9.566;2023-06-01T07:23:58;18.70;99.90
19970;DHT22;10146;47.754;9.566;2023-06-01T07:26:24;18.80;99.90
19970;DHT22;10146;47.754;9.566;2023-06-01T07:28:52;18.90;99.90
19970;DHT22;10146;47.754;9.566;2023-06-01T07:31:19;19.00;99.90
19970;DHT22;10146;47.754;9.566;2023-06-01T07:33:45;19.10;99.90
19970;DHT22;10146;47.754;9.566;2023-06-01T07:36:11;19.10;99.90
19970;DHT22;10146;47.754;9.566;2023-06-01T07:38:37;19.20;99.90
19970;DHT22;10146;47.754;9.566;2023-06-01T07:41:03;19.30;99.90
19970;DHT22;10146;47.754;9.566;2023-06-01T07:43:28;19.40;99.90
19970;DHT22;10146;47.754;9.566;2023-06-01T07:45:54;19.50;99.90
19970;DHT22;10146;47.754;9.566;2023-06-01T07:48:20;19.50;99.90
19970;DHT22;10146;47.754;9.566;2023-06-01T07:50:46;19.70;99.90
19970;DHT22;10146;47.754;9.566;2023-06-01T07:53:12;19.80;99.90
19970;DHT22;10146;47.754;9.566;2023-06-01T07:55:38;19.90;99.90
19970;DHT22;10146;47.754;9.566;2023-06-01T07:58:03;20.00;99.90
19970;DHT22;10146;47.754;9.566;2023-06-01T08:00:29;20.00;99.90
19970;DHT22;10146;47.754;9.566;2023-06-01T08:02:55;20.00;99.90
19970;DHT22;10146;47.754;9.566;2023-06-01T08:05:22;20.00;99.90
19970;DHT22;10146;47.754;9.566;2023-06-01T08:07:48;20.10;99.90
19970;DHT22;10146;47.754;9.566;2023-06-01T08:10:14;20.10;99.90
19970;DHT22;10146;47.754;9.566;2023-06-01T08:12:40;20.20;99.90
19970;DHT22;10146;47.754;9.566;2023-06-01T08:15:08;20.20;99.90
19970;DHT22;10146;47.754;9.566;2023-06-01T08:17:34;20.30;99.90
19970;DHT22;10146;47.754;9.566;2023-06-01T08:20:00;20.50;99.90
19970;DHT22;10146;47.754;9.566;2023-06-01T08:22:26;20.70;99.90
19970;DHT22;10146;47.754;9.566;2023-06-01T08:24:54;20.80;99.90
19970;DHT22;10146;47.754;9.566;2023-06-01T08:27:23;20.80;99.90
19970;DHT22;10146;47.754;9.566;2023-06-01T08:29:49;20.80;99.90
19970;DHT22;10146;47.754;9.566;2023-06-01T08:32:16;20.90;99.90
19970;DHT22;10146;47.754;9.566;2023-06-01T08:34:45;21.10;99.90
19970;DHT22;10146;47.754;9.566;2023-06-01T08:37:14;21.30;99.90
19970;DHT22;10146;47.754;9.566;2023-06-01T08:39:40;21.30;99.90
19970;DHT22;10146;47.754;9.566;2023-06-01T08:42:07;21.30;99.90
19970;DHT22;10146;47.754;9.566;2023-06-01T08:44:36;21.30;99.90
19970;DHT22;10146;47.754;9.566;2023-06-01T08:47:03;21.30;99.90
19970;DHT22;10146;47.754;9.566;2023-06-01T08:49:34;21.30;99.90
19970;DHT22;10146;47.754;9.566;2023-06-01T08:52:02;21.30;99.90
19970;DHT22;10146;47.754;9.566;2023-06-01T08:54:28;21.30;99.90
19970;DHT22;10146;47.754;9.566;2023-06-01T08:56:58;21.30;99.90
19970;DHT22;10146;47.754;9.566;2023-06-01T08:59:24;21.60;99.90
19970;DHT22;10146;47.754;9.566;2023-06-01T09:01:50;21.80;99.90
19970;DHT22;10146;47.754;9.566;2023-06-01T09:04:17;21.90;99.90
19970;DHT22;10146;47.754;9.566;2023-06-01T09:06:43;22.10;99.50
19970;DHT22;10146;47.754;9.566;2023-06-01T09:09:09;22.10;99.60
19970;DHT22;10146;47.754;9.566;2023-06-01T09:11:37;22.30;99.90
19970;DHT22;10146;47.754;9.566;2023-06-01T09:14:22;22.40;99.90
19970;DHT22;10146;47.754;9.566;2023-06-01T09:16:48;22.50;99.00
19970;DHT22;10146;47.754;9.566;2023-06-01T09:19:14;22.40;99.30
19970;DHT22;10146;47.754;9.566;2023-06-01T09:21:57;22.60;99.90
19970;DHT22;10146;47.754;9.566;2023-06-01T09:24:23;22.90;98.90
19970;DHT22;10146;47.754;9.566;2023-06-01T09:26:49;23.00;98.30
19970;DHT22;10146;47.754;9.566;2023-06-01T09:29:15;23.20;99.00
19970;DHT22;10146;47.754;9.566;2023-06-01T09:31:43;23.20;97.90
19970;DHT22;10146;47.754;9.566;2023-06-01T09:34:11;23.30;98.00
19970;DHT22;10146;47.754;9.566;2023-06-01T09:36:37;23.40;98.10
19970;DHT22;10146;47.754;9.566;2023-06-01T09:39:05;23.50;97.50
19970;DHT22;10146;47.754;9.566;2023-06-01T09:41:48;23.60;97.00
19970;DHT22;10146;47.754;9.566;2023-06-01T09:44:31;23.60;96.60
19970;DHT22;10146;47.754;9.566;2023-06-01T09:47:08;23.60;95.60
19970;DHT22;10146;47.754;9.566;2023-06-01T09:49:42;23.70;95.30
19970;DHT22;10146;47.754;9.566;2023-06-01T09:52:09;23.70;95.80
19970;DHT22;10146;47.754;9.566;2023-06-01T09:54:39;23.80;95.10
19970;DHT22;10146;47.754;9.566;2023-06-01T09:57:05;23.70;95.70
19970;DHT22;10146;47.754;9.566;2023-06-01T09:59:45;23.90;95.70
19970;DHT22;10146;47.754;9.566;2023-06-01T10:02:19;24.30;95.70
19970;DHT22;10146;47.754;9.566;2023-06-01T10:04:48;24.60;94.60
19970;DHT22;10146;47.754;9.566;2023-06-01T10:07:18;24.80;93.90
19970;DHT22;10146;47.754;9.566;2023-06-01T10:09:50;24.90;92.80
19970;DHT22;10146;47.754;9.566;2023-06-01T10:12:18;25.00;92.70
19970;DHT22;10146;47.754;9.566;2023-06-01T10:14:44;25.00;92.20
19970;DHT22;10146;47.754;9.566;2023-06-01T10:17:13;25.10;91.50
19970;DHT22;10146;47.754;9.566;2023-06-01T10:19:41;25.10;93.30
19970;DHT22;10146;47.754;9.566;2023-06-01T10:22:08;24.90;91.50
19970;DHT22;10146;47.754;9.566;2023-06-01T10:24:36;24.90;91.60
19970;DHT22;10146;47.754;9.566;2023-06-01T10:27:20;25.00;91.40
19970;DHT22;10146;47.754;9.566;2023-06-01T10:29:48;25.30;91.80
19970;DHT22;10146;47.754;9.566;2023-06-01T10:35:02;25.80;90.10
19970;DHT22;10146;47.754;9.566;2023-06-01T10:37:27;25.80;90.30
19970;DHT22;10146;47.754;9.566;2023-06-01T10:39:53;25.90;91.20
19970;DHT22;10146;47.754;9.566;2023-06-01T10:42:35;25.90;90.80
19970;DHT22;10146;47.754;9.566;2023-06-01T10:45:02;25.90;86.80
19970;DHT22;10146;47.754;9.566;2023-06-01T10:47:44;25.90;86.80
19970;DHT22;10146;47.754;9.566;2023-06-01T10:50:10;25.80;89.30
19970;DHT22;10146;47.754;9.566;2023-06-01T10:52:37;25.70;87.50
19970;DHT22;10146;47.754;9.566;2023-06-01T10:57:38;25.60;87.20
19970;DHT22;10146;47.754;9.566;2023-06-01T11:00:25;25.60;85.50
19970;DHT22;10146;47.754;9.566;2023-06-01T11:03:02;25.80;85.40
19970;DHT22;10146;47.754;9.566;2023-06-01T11:13:37;26.90;84.10
19970;DHT22;10146;47.754;9.566;2023-06-01T11:18:48;27.10;81.70
19970;DHT22;10146;47.754;9.566;2023-06-01T11:21:25;27.30;81.90
19970;DHT22;10146;47.754;9.566;2023-06-01T11:23:52;27.50;82.90
19970;DHT22;10146;47.754;9.566;2023-06-01T11:26:20;27.60;79.30
19970;DHT22;10146;47.754;9.566;2023-06-01T11:28:47;27.20;81.20
19970;DHT22;10146;47.754;9.566;2023-06-01T11:31:15;27.30;82.70
19970;DHT22;10146;47.754;9.566;2023-06-01T11:33:41;26.80;77.00
19970;DHT22;10146;47.754;9.566;2023-06-01T11:36:12;26.40;78.90
19970;DHT22;10146;47.754;9.566;2023-06-01T11:38:43;26.20;81.20
19970;DHT22;10146;47.754;9.566;2023-06-01T11:41:09;26.30;79.30
19970;DHT22;10146;47.754;9.566;2023-06-01T11:43:35;26.60;81.80
19970;DHT22;10146;47.754;9.566;2023-06-01T11:46:05;26.80;75.50
19970;DHT22;10146;47.754;9.566;2023-06-01T11:48:32;26.90;74.90
19970;DHT22;10146;47.754;9.566;2023-06-01T11:51:00;27.10;76.00
19970;DHT22;10146;47.754;9.566;2023-06-01T11:53:26;27.20;74.80
19970;DHT22;10146;47.754;9.566;2023-06-01T11:55:54;27.30;80.00
19970;DHT22;10146;47.754;9.566;2023-06-01T11:58:27;27.10;74.20
19970;DHT22;10146;47.754;9.566;2023-06-01T12:00:53;26.70;74.50
19970;DHT22;10146;47.754;9.566;2023-06-01T12:03:20;26.40;77.00
19970;DHT22;10146;47.754;9.566;2023-06-01T12:05:46;26.10;79.90
19970;DHT22;10146;47.754;9.566;2023-06-01T12:08:22;25.80;75.70
19970;DHT22;10146;47.754;9.566;2023-06-01T12:10:50;25.90;77.40
19970;DHT22;10146;47.754;9.566;2023-06-01T12:13:20;26.40;76.50
19970;DHT22;10146;47.754;9.566;2023-06-01T12:15:46;27.00;73.20
19970;DHT22;10146;47.754;9.566;2023-06-01T12:18:12;27.10;73.80
19970;DHT22;10146;47.754;9.566;2023-06-01T12:20:39;27.40;72.40
19970;DHT22;10146;47.754;9.566;2023-06-01T12:23:14;27.90;71.80
19970;DHT22;10146;47.754;9.566;2023-06-01T12:25:55;28.10;71.20
19970;DHT22;10146;47.754;9.566;2023-06-01T12:28:23;28.40;73.90
19970;DHT22;10146;47.754;9.566;2023-06-01T12:31:08;28.60;69.60
19970;DHT22;10146;47.754;9.566;2023-06-01T12:33:36;28.90;70.30
19970;DHT22;10146;47.754;9.566;2023-06-01T12:36:03;29.00;67.70
19970;DHT22;10146;47.754;9.566;2023-06-01T12:38:37;29.30;67.70
19970;DHT22;10146;47.754;9.566;2023-06-01T12:41:11;29.50;65.10
19970;DHT22;10146;47.754;9.566;2023-06-01T12:43:44;29.70;62.20
19970;DHT22;10146;47.754;9.566;2023-06-01T12:48:47;29.90;64.30
19970;DHT22;10146;47.754;9.566;2023-06-01T12:51:13;29.50;61.60
19970;DHT22;10146;47.754;9.566;2023-06-01T12:53:39;29.40;63.00
19970;DHT22;10146;47.754;9.566;2023-06-01T12:56:06;29.80;60.80
19970;DHT22;10146;47.754;9.566;2023-06-01T12:58:32;29.50;60.80
19970;DHT22;10146;47.754;9.566;2023-06-01T13:00:57;29.50;61.80
19970;DHT22;10146;47.754;9.566;2023-06-01T13:03:23;29.90;64.70
19970;DHT22;10146;47.754;9.566;2023-06-01T13:05:49;30.10;63.30
19970;DHT22;10146;47.754;9.566;2023-06-01T13:08:18;30.30;62.50
19970;DHT22;10146;47.754;9.566;2023-06-01T13:10:44;29.70;60.40
19970;DHT22;10146;47.754;9.566;2023-06-01T13:13:10;29.30;61.00
19970;DHT22;10146;47.754;9.566;2023-06-01T13:15:41;29.60;61.10
19970;DHT22;10146;47.754;9.566;2023-06-01T13:18:07;29.60;61.40
19970;DHT22;10146;47.754;9.566;2023-06-01T13:20:33;29.90;61.10
19970;DHT22;10146;47.754;9.566;2023-06-01T13:22:59;29.40;61.70
19970;DHT22;10146;47.754;9.566;2023-06-01T13:25:25;29.60;59.70
19970;DHT22;10146;47.754;9.566;2023-06-01T13:27:50;30.20;59.20
19970;DHT22;10146;47.754;9.566;2023-06-01T13:30:16;30.60;58.00
19970;DHT22;10146;47.754;9.566;2023-06-01T13:32:43;31.00;56.10
19970;DHT22;10146;47.754;9.566;2023-06-01T13:35:09;31.30;55.40
19970;DHT22;10146;47.754;9.566;2023-06-01T13:37:37;31.00;55.20
19970;DHT22;10146;47.754;9.566;2023-06-01T13:40:03;31.20;55.80
19970;DHT22;10146;47.754;9.566;2023-06-01T13:42:30;31.40;55.10
19970;DHT22;10146;47.754;9.566;2023-06-01T13:44:56;31.70;54.20
19970;DHT22;10146;47.754;9.566;2023-06-01T13:47:22;32.20;53.00
19970;DHT22;10146;47.754;9.566;2023-06-01T13:49:48;32.40;52.40
19970;DHT22;10146;47.754;9.566;2023-06-01T13:52:14;31.90;52.70
19970;DHT22;10146;47.754;9.566;2023-06-01T13:54:40;31.60;52.80
19970;DHT22;10146;47.754;9.566;2023-06-01T13:57:06;30.70;53.50
19970;DHT22;10146;47.754;9.566;2023-06-01T13:59:33;30.30;55.30
19970;DHT22;10146;47.754;9.566;2023-06-01T14:02:01;29.70;56.30
19970;DHT22;10146;47.754;9.566;2023-06-01T14:04:27;30.00;57.50
19970;DHT22;10146;47.754;9.566;2023-06-01T14:06:52;30.20;55.80
19970;DHT22;10146;47.754;9.566;2023-06-01T14:09:21;30.40;54.60
19970;DHT22;10146;47.754;9.566;2023-06-01T14:11:47;30.20;53.80
19970;DHT22;10146;47.754;9.566;2023-06-01T14:14:12;30.70;53.00
19970;DHT22;10146;47.754;9.566;2023-06-01T14:16:38;31.10;51.70
19970;DHT22;10146;47.754;9.566;2023-06-01T14:19:04;31.30;52.20
19970;DHT22;10146;47.754;9.566;2023-06-01T14:21:30;31.60;52.90
19970;DHT22;10146;47.754;9.566;2023-06-01T14:24:00;32.00;50.20
19970;DHT22;10146;47.754;9.566;2023-06-01T14:26:26;32.30;50.00
19970;DHT22;10146;47.754;9.566;2023-06-01T14:28:52;32.60;50.90
19970;DHT22;10146;47.754;9.566;2023-06-01T14:31:18;32.70;49.50
19970;DHT22;10146;47.754;9.566;2023-06-01T14:33:45;32.70;48.70
19970;DHT22;10146;47.754;9.566;2023-06-01T14:36:11;32.10;50.20
19970;DHT22;10146;47.754;9.566;2023-06-01T14:38:36;32.50;49.80
19970;DHT22;10146;47.754;9.566;2023-06-01T14:41:02;32.80;49.20
19970;DHT22;10146;47.754;9.566;2023-06-01T14:43:27;33.20;48.40
19970;DHT22;10146;47.754;9.566;2023-06-01T14:45:55;33.50;48.00
19970;DHT22;10146;47.754;9.566;2023-06-01T14:48:21;33.30;47.10
19970;DHT22;10146;47.754;9.566;2023-06-01T14:50:46;33.30;48.50
19970;DHT22;10146;47.754;9.566;2023-06-01T14:53:12;33.40;48.00
19970;DHT22;10146;47.754;9.566;2023-06-01T14:55:42;34.00;46.80
19970;DHT22;10146;47.754;9.566;2023-06-01T14:58:08;34.50;45.60
19970;DHT22;10146;47.754;9.566;2023-06-01T15:00:35;35.50;45.20
19970;DHT22;10146;47.754;9.566;2023-06-01T15:03:01;36.00;43.80
19970;DHT22;10146;47.754;9.566;2023-06-01T15:05:27;36.50;43.20
19970;DHT22;10146;47.754;9.566;2023-06-01T15:07:52;36.80;43.00
19970;DHT22;10146;47.754;9.566;2023-06-01T15:10:18;36.90;41.80
19970;DHT22;10146;47.754;9.566;2023-06-01T15:12:43;37.10;40.80
19970;DHT22;10146;47.754;9.566;2023-06-01T15:15:09;37.60;39.90
19970;DHT22;10146;47.754;9.566;2023-06-01T15:17:35;38.00;38.20
19970;DHT22;10146;47.754;9.566;2023-06-01T15:20:01;38.40;37.90
19970;DHT22;10146;47.754;9.566;2023-06-01T15:22:27;38.70;38.20
19970;DHT22;10146;47.754;9.566;2023-06-01T15:24:52;38.80;37.30
19970;DHT22;10146;47.754;9.566;2023-06-01T15:27:18;39.00;38.50
19970;DHT22;10146;47.754;9.566;2023-06-01T15:29:45;38.70;38.00
19970;DHT22;10146;47.754;9.566;2023-06-01T15:32:10;38.60;38.40
19970;DHT22;10146;47.754;9.566;2023-06-01T15:34:36;38.90;37.90
19970;DHT22;10146;47.754;9.566;2023-06-01T15:37:10;38.80;37.20
19970;DHT22;10146;47.754;9.566;2023-06-01T15:39:36;38.80;36.90
19970;DHT22;10146;47.754;9.566;2023-06-01T15:42:08;38.90;36.40
19970;DHT22;10146;47.754;9.566;2023-06-01T15:44:44;38.70;36.90
19970;DHT22;10146;47.754;9.566;2023-06-01T15:47:10;38.70;37.10
19970;DHT22;10146;47.754;9.566;2023-06-01T15:49:38;38.50;37.50
19970;DHT22;10146;47.754;9.566;2023-06-01T15:52:04;38.10;37.90
19970;DHT22;10146;47.754;9.566;2023-06-01T15:54:34;37.10;38.60